Time;durP1;ratioP1;P1;durP2;ratioP2;P2;SDS_P1;SDS_P2;PMS_P1;PMS_P2;Temp;Humidity;BMP_temperature;BMP_pressure;BME280_temperature;BME280_humidity;BME280_pressure;Samples;Min_cycle;Max_cycle;Signal;HPM_P1;HPM_P2
2022/09/10 08:01:46;;;;;;;17.33;15.82;;;;;;;16.39;100.00;100799.16;5239550;27;3381902;-72
2022/09/10 08:04:17;;;;;;;17.92;16.42;;;;;;;16.39;100.00;100807.56;5343458;27;20032;-71
2022/09/10 08:06:50;;;;;;;18.13;16.30;;;;;;;16.35;100.00;100800.13;5343766;28;20028;-73
2022/09/10 08:09:21;;;;;;;16.73;15.18;;;;;;;16.57;100.00;100799.16;5342713;27;20393;-73
2022/09/10 08:11:52;;;;;;;18.02;16.52;;;;;;;16.51;100.00;100810.50;5343287;27;20027;-72
2022/09/10 08:14:24;;;;;;;18.20;16.42;;;;;;;16.64;100.00;100817.09;5343097;28;20034;-72
2022/09/10 08:16:55;;;;;;;16.73;15.23;;;;;;;16.63;100.00;100809.81;5342735;27;20024;-72
2022/09/10 08:19:30;;;;;;;16.00;14.50;;;;;;;16.68;100.00;100817.22;5343371;27;20050;-72
2022/09/10 08:22:02;;;;;;;16.47;15.17;;;;;;;16.66;100.00;100819.53;5343299;27;20032;-73
2022/09/10 08:24:33;;;;;;;23.20;21.25;;;;;;;16.72;100.00;100824.66;5341572;27;20538;-73
2022/09/10 08:27:04;;;;;;;18.15;16.65;;;;;;;16.67;100.00;100826.81;5342202;28;20028;-73
2022/09/10 08:29:39;;;;;;;16.25;14.85;;;;;;;16.70;100.00;100832.53;5343095;27;20114;-72
2022/09/10 08:32:13;;;;;;;17.65;16.10;;;;;;;16.72;100.00;100837.81;5341889;28;20039;-70
2022/09/10 08:34:44;;;;;;;15.10;13.80;;;;;;;16.81;100.00;100838.66;5342295;27;20373;-71
2022/09/10 08:37:17;;;;;;;15.38;13.85;;;;;;;16.88;100.00;100838.97;5341972;27;20027;-71
2022/09/10 08:39:49;;;;;;;15.13;13.90;;;;;;;16.89;100.00;100842.59;5329973;27;20066;-70
2022/09/10 08:42:38;;;;;;;13.77;12.68;;;;;;;16.87;100.00;100851.34;5321765;28;20040;-70
2022/09/10 08:45:19;;;;;;;12.50;11.48;;;;;;;16.88;100.00;100850.19;5326681;28;20015;-72
2022/09/10 08:48:05;;;;;;;14.50;13.23;;;;;;;16.91;100.00;100854.28;5340582;27;20146;-70
2022/09/10 08:50:45;;;;;;;;;;;;;;;16.97;100.00;100858.56;5326940;27;20107;-70
2022/09/10 08:53:35;;;;;;;13.27;12.07;;;;;;;16.91;100.00;100852.31;5339210;28;19919;-70
2022/09/10 08:56:15;;;;;;;11.05;9.88;;;;;;;17.07;100.00;100858.19;5338961;27;20024;-69
2022/09/10 08:59:11;;;;;;;11.48;10.48;;;;;;;17.11;100.00;100858.38;5339800;27;20455;-77
2022/09/10 09:02:22;;;;;;;12.40;11.50;;;;;;;17.02;100.00;100863.97;5331126;28;20047;-77
2022/09/10 09:04:59;;;;;;;11.75;10.68;;;;;;;16.95;100.00;100870.09;5257843;28;20029;-70
2022/09/10 09:07:38;;;;;;;11.13;10.15;;;;;;;17.06;100.00;100878.16;5335039;27;20040;-70
2022/09/10 09:10:15;;;;;;;11.57;10.68;;;;;;;17.03;100.00;100876.84;5341845;27;20474;-69
2022/09/10 09:13:13;;;;;;;13.00;11.82;;;;;;;17.09;100.00;100871.88;5328218;28;20088;-69
2022/09/10 09:16:15;;;;;;;12.75;11.75;;;;;;;17.05;100.00;100874.53;5314144;28;20028;-68
2022/09/10 09:19:02;;;;;;;12.65;11.63;;;;;;;17.06;100.00;100878.97;5306352;28;20084;-70
2022/09/10 09:21:52;;;;;;;15.63;14.13;;;;;;;17.16;100.00;100875.00;5306655;28;20036;-71
2022/09/10 09:24:41;;;;;;;12.60;11.50;;;;;;;17.15;100.00;100870.53;5306701;28;20031;-70
2022/09/10 09:27:16;;;;;;;13.15;11.98;;;;;;;17.17;100.00;100876.63;5313769;28;20042;-70
2022/09/10 09:30:03;;;;;;;11.75;10.52;;;;;;;17.35;100.00;100875.44;5313217;28;20054;-69
2022/09/10 09:32:38;;;;;;;12.95;11.93;;;;;;;17.29;100.00;100887.16;5306439;28;20028;-70
2022/09/10 09:35:27;;;;;;;12.60;11.50;;;;;;;17.29;100.00;100882.38;5314364;28;20030;-70
2022/09/10 09:38:07;;;;;;;52.88;47.70;;;;;;;17.28;100.00;100877.94;5309883;28;20024;-72
2022/09/10 09:40:51;;;;;;;12.23;11.18;;;;;;;17.43;100.00;100872.94;5321480;28;20036;-72
2022/09/10 09:43:33;;;;;;;11.85;10.75;;;;;;;17.54;100.00;100882.63;5317382;28;20114;-73
2022/09/10 09:46:10;;;;;;;12.00;10.75;;;;;;;17.77;100.00;100874.78;5306093;28;20024;-70
2022/09/10 09:48:43;;;;;;;11.15;10.13;;;;;;;17.66;100.00;100882.72;5305036;28;20032;-70
2022/09/10 09:51:19;;;;;;;11.70;10.77;;;;;;;17.68;100.00;100879.59;5325497;28;20023;-71
2022/09/10 09:53:55;;;;;;;12.05;10.88;;;;;;;17.64;100.00;100882.28;5327119;28;20413;-71
2022/09/10 09:56:35;;;;;;;28.20;25.65;;;;;;;17.63;100.00;100891.00;5325974;28;20042;-71
2022/09/10 09:59:24;;;;;;;13.25;12.02;;;;;;;17.59;100.00;100882.44;5321250;28;20052;-69
2022/09/10 10:02:03;;;;;;;11.75;10.80;;;;;;;17.59;100.00;100879.66;5305009;28;20458;-70
2022/09/10 10:04:35;;;;;;;11.15;10.10;;;;;;;17.49;100.00;100880.03;5324842;28;20382;-71
2022/09/10 10:07:07;;;;;;;10.52;9.63;;;;;;;17.52;100.00;100880.16;5325539;28;20036;-70
2022/09/10 10:09:42;;;;;;;12.98;11.90;;;;;;;17.54;100.00;100877.03;5326120;28;20046;-72
2022/09/10 10:12:19;;;;;;;11.27;10.18;;;;;;;17.78;100.00;100882.84;5320604;28;20077;-72
2022/09/10 10:14:51;;;;;;;9.73;8.93;;;;;;;17.87;100.00;100890.41;5324921;28;20032;-71
2022/09/10 10:17:39;;;;;;;11.00;9.57;;;;;;;17.88;100.00;100892.91;5326222;28;20102;-71
2022/09/10 10:20:15;;;;;;;11.27;10.20;;;;;;;17.82;100.00;100905.47;5326350;28;20051;-71
2022/09/10 10:22:49;;;;;;;9.02;8.15;;;;;;;18.00;100.00;100903.41;5325052;28;20024;-70
2022/09/10 10:25:39;;;;;;;9.57;8.38;;;;;;;18.00;100.00;100883.75;5325779;28;20517;-71
2022/09/10 10:28:22;;;;;;;11.27;9.73;;;;;;;18.01;100.00;100905.03;5326406;28;20026;-69
2022/09/10 10:30:58;;;;;;;10.07;9.15;;;;;;;18.03;100.00;100903.53;5325221;28;20030;-71
2022/09/10 10:33:34;;;;;;;9.02;8.23;;;;;;;18.13;100.00;100893.91;5325678;28;20054;-70
2022/09/10 10:36:25;;;;;;;9.77;8.93;;;;;;;18.15;100.00;100902.81;5325748;28;20371;-71
2022/09/10 10:39:08;;;;;;;8.75;7.53;;;;;;;18.16;100.00;100909.25;5325449;27;20024;-73
2022/09/10 10:41:59;;;;;;;9.63;8.73;;;;;;;17.97;100.00;100901.25;5325788;28;20057;-71
2022/09/10 10:44:48;;;;;;;8.95;7.80;;;;;;;18.05;100.00;100897.59;5324336;28;20030;-70
2022/09/10 10:47:53;;;;;;;11.52;7.53;;;;;;;18.16;100.00;100910.06;5325464;28;20051;-71
2022/09/10 10:50:35;;;;;;;7.95;7.10;;;;;;;18.21;100.00;100911.84;5324643;28;20026;-69
2022/09/10 10:53:10;;;;;;;7.65;5.93;;;;;;;18.29;99.93;100912.97;5316126;28;20027;-71
2022/09/10 10:56:16;;;;;;;9.63;6.57;;;;;;;18.28;100.00;100912.16;5319038;28;20516;-71
2022/09/10 10:59:22;;;;;;;8.80;6.47;;;;;;;18.16;100.00;100918.50;5303300;28;20032;-72
2022/09/10 11:02:02;;;;;;;12.05;6.72;;;;;;;18.14;100.00;100923.63;5325489;28;20142;-71
2022/09/10 11:04:42;;;;;;;8.10;7.30;;;;;;;18.06;100.00;100918.06;5317128;28;20024;-71
2022/09/10 11:07:41;;;;;;;9.70;8.63;;;;;;;18.07;100.00;100909.28;5310711;28;20031;-71
2022/09/10 11:10:22;;;;;;;9.05;5.90;;;;;;;18.08;100.00;100901.72;5321690;28;20046;-70
2022/09/10 11:13:13;;;;;;;7.43;5.63;;;;;;;18.13;100.00;100902.34;5314162;28;20036;-71
2022/09/10 11:15:58;;;;;;;13.50;6.63;;;;;;;18.06;100.00;100907.66;5304192;28;20388;-71
2022/09/10 11:18:44;;;;;;;7.72;6.35;;;;;;;18.06;100.00;100921.69;5304426;28;20020;-72
2022/09/10 11:21:32;;;;;;;10.00;7.35;;;;;;;18.01;100.00;100919.88;5312551;28;20073;-69
2022/09/10 11:24:22;;;;;;;13.43;11.52;;;;;;;17.93;100.00;100915.16;5325617;28;20506;-70
2022/09/10 11:27:07;;;;;;;8.05;6.95;;;;;;;17.95;100.00;100914.81;5324312;28;20042;-70
2022/09/10 11:29:46;;;;;;;8.27;7.20;;;;;;;17.85;100.00;100918.81;5315327;28;20046;-69
2022/09/10 11:32:27;;;;;;;9.95;7.80;;;;;;;17.88;100.00;100917.31;5304008;28;20020;-69
2022/09/10 11:35:17;;;;;;;17.42;12.25;;;;;;;17.92;100.00;100916.31;5319588;28;20023;-70
2022/09/10 11:38:03;;;;;;;11.98;8.07;;;;;;;17.82;100.00;100922.31;5325005;28;20023;-68
2022/09/10 11:40:43;;;;;;;9.73;7.07;;;;;;;17.78;100.00;100930.53;5324193;28;20050;-68
2022/09/10 11:43:32;;;;;;;8.02;7.38;;;;;;;17.64;100.00;100929.09;5325665;28;20081;-68
2022/09/10 11:46:09;;;;;;;9.43;6.88;;;;;;;17.55;100.00;100926.34;5325069;28;20066;-71
2022/09/10 11:48:43;;;;;;;7.32;6.45;;;;;;;17.73;100.00;100936.31;5323596;28;20072;-69
2022/09/10 11:51:32;;;;;;;5.57;4.43;;;;;;;17.72;100.00;100937.50;5314035;28;20401;-69
2022/09/10 11:54:12;;;;;;;6.75;4.78;;;;;;;17.65;100.00;100948.41;5323574;28;20039;-70
2022/09/10 11:57:21;;;;;;;6.82;4.40;;;;;;;17.85;100.00;100937.66;5323984;28;20047;-69
2022/09/10 12:00:07;;;;;;;6.25;4.97;;;;;;;18.07;100.00;100942.16;5323823;28;20404;-70
2022/09/10 12:02:45;;;;;;;7.28;4.18;;;;;;;17.96;100.00;100938.91;5324908;28;20514;-72
2022/09/10 12:05:43;;;;;;;6.55;4.65;;;;;;;17.94;100.00;100935.59;5323805;28;20084;-72
2022/09/10 12:08:31;;;;;;;6.00;4.00;;;;;;;18.04;100.00;100929.63;5324354;28;20410;-76
2022/09/10 12:11:31;;;;;;;6.25;4.78;;;;;;;18.18;100.00;100935.81;5325012;28;20027;-77
2022/09/10 12:14:09;;;;;;;5.32;4.45;;;;;;;18.36;100.00;100932.91;5324548;28;20032;-74
2022/09/10 12:17:05;;;;;;;7.18;4.18;;;;;;;18.46;100.00;100950.16;5323693;28;20474;-73
2022/09/10 12:19:45;;;;;;;17.02;13.95;;;;;;;18.39;100.00;100951.88;5313292;28;20025;-74
2022/09/10 12:22:35;;;;;;;12.13;8.90;;;;;;;18.38;100.00;100961.44;5322882;28;20334;-73
2022/09/10 12:25:29;;;;;;;9.55;6.43;;;;;;;18.41;100.00;100955.16;5324346;28;20132;-71
2022/09/10 12:28:06;;;;;;;7.55;5.72;;;;;;;18.47;100.00;100953.78;5325149;28;20030;-75
2022/09/10 12:30:38;;;;;;;8.55;6.05;;;;;;;18.71;100.00;100953.13;5322955;28;20024;-71
2022/09/10 12:33:12;;;;;;;9.18;7.07;;;;;;;18.77;100.00;100953.78;5324223;28;20049;-71
2022/09/10 12:35:46;;;;;;;7.85;6.97;;;;;;;18.68;100.00;100957.44;5322479;28;20040;-71
2022/09/10 12:38:52;;;;;;;10.32;8.13;;;;;;;18.73;100.00;100949.97;5322417;28;20031;-71
2022/09/10 12:41:24;;;;;;;8.30;6.68;;;;;;;18.61;99.24;100957.19;5324472;28;20092;-71
2022/09/10 12:43:57;;;;;;;9.45;7.13;;;;;;;18.62;98.26;100944.78;5324053;28;20027;-71
2022/09/10 12:46:30;;;;;;;9.93;7.68;;;;;;;18.44;97.06;100955.31;5324442;28;20028;-71
2022/09/10 12:49:01;;;;;;;7.68;6.97;;;;;;;18.65;99.93;100952.50;5327671;28;20094;-72
2022/09/10 12:52:05;;;;;;;8.45;7.57;;;;;;;18.84;99.72;100963.31;5327562;28;20546;-72
2022/09/10 12:54:54;;;;;;;8.60;7.35;;;;;;;18.95;99.89;100960.09;5311261;28;20040;-71
2022/09/10 12:57:46;;;;;;;9.20;7.53;;;;;;;18.84;97.54;100954.03;5305469;28;20107;-71
2022/09/10 13:00:26;;;;;;;10.30;9.32;;;;;;;18.92;98.42;100963.56;5306505;28;20138;-70
2022/09/10 13:03:06;;;;;;;8.88;7.55;;;;;;;18.78;97.24;100958.22;5310803;28;20032;-72
2022/09/10 13:05:43;;;;;;;8.70;6.32;;;;;;;18.68;94.30;100956.63;5326545;28;20039;-73
2022/09/10 13:08:14;;;;;;;7.57;6.75;;;;;;;18.68;95.71;100959.44;5327984;28;20591;-72
2022/09/10 13:11:11;;;;;;;7.97;6.95;;;;;;;18.66;94.16;100968.22;5327265;28;20110;-73
2022/09/10 13:13:47;;;;;;;9.50;8.70;;;;;;;18.54;94.91;100970.94;5327423;28;20035;-72
2022/09/10 13:16:37;;;;;;;13.80;12.52;;;;;;;18.58;95.36;100977.50;5328105;27;20032;-77
2022/09/10 13:19:11;;;;;;;9.93;9.13;;;;;;;18.47;94.02;100991.13;5326816;28;20019;-74
2022/09/10 13:21:42;;;;;;;10.20;9.43;;;;;;;18.75;94.12;100996.25;5326047;28;20043;-76
2022/09/10 13:24:32;;;;;;;9.35;8.45;;;;;;;18.61;94.16;101002.13;5327855;28;20015;-78
2022/09/10 13:27:33;;;;;;;8.60;7.90;;;;;;;18.62;93.53;101000.13;5305358;28;20043;-76
2022/09/10 13:30:17;;;;;;;12.50;11.50;;;;;;;18.68;94.22;100995.94;5306674;28;20035;-74
2022/09/10 13:32:51;;;;;;;8.50;7.53;;;;;;;18.72;94.63;100993.28;5305662;28;20538;-78
2022/09/10 13:35:53;;;;;;;7.47;6.68;;;;;;;18.82;93.96;100995.72;5305852;28;20514;-77
2022/09/10 13:38:53;;;;;;;6.97;6.30;;;;;;;18.85;92.86;101003.47;5321929;28;20390;-77
2022/09/10 13:41:55;;;;;;;8.95;8.02;;;;;;;18.72;93.10;101001.72;5326253;28;20382;-77
2022/09/10 13:44:47;;;;;;;7.03;6.43;;;;;;;18.71;93.79;100997.25;5327215;28;20034;-75
2022/09/10 13:47:26;;;;;;;7.15;6.45;;;;;;;18.74;93.50;100999.38;5322686;28;20019;-77
2022/09/10 13:50:10;;;;;;;10.35;7.28;;;;;;;18.80;94.01;100998.06;5326580;28;20023;-77
2022/09/10 13:52:45;;;;;;;7.82;7.13;;;;;;;18.85;93.95;100997.84;5327462;28;20463;-79
2022/09/10 13:55:24;;;;;;;8.15;7.43;;;;;;;18.75;93.56;101004.69;5325918;28;20023;-79
2022/09/10 13:57:59;;;;;;;9.13;7.63;;;;;;;18.73;93.42;101001.34;5326441;28;20027;-81
2022/09/10 14:00:51;;;;;;;;;;;;;;;18.83;93.38;101000.97;5327127;28;20397;-80
2022/09/10 14:03:31;;;;;;;10.20;9.23;;;;;;;18.64;95.28;101009.03;5326824;27;19962;-80
2022/09/10 14:06:07;;;;;;;9.05;8.07;;;;;;;18.77;94.05;101007.16;5326091;28;20016;-80
2022/09/10 14:08:49;;;;;;;11.00;9.93;;;;;;;18.63;94.99;101016.63;5326062;28;20056;-81
2022/09/10 14:11:24;;;;;;;10.35;9.43;;;;;;;18.64;95.72;101032.34;5318846;28;20039;-78
2022/09/10 14:14:04;;;;;;;;;;;;;;;18.71;95.93;101030.97;5327260;28;20034;-83
2022/09/10 14:16:41;;;;;;;12.68;11.43;;;;;;;18.64;96.69;101031.50;5325143;28;19912;-79
2022/09/10 14:19:26;;;;;;;10.98;10.07;;;;;;;18.74;97.85;101044.31;5305305;28;20537;-82
2022/09/10 14:21:58;;;;;;;10.77;9.60;;;;;;;18.68;97.01;101047.31;5305471;28;20690;-82
2022/09/10 14:24:54;;;;;;;19.27;17.58;;;;;;;18.73;97.55;101053.91;5306219;28;20049;-81
2022/09/10 14:27:36;;;;;;;16.33;14.95;;;;;;;18.63;98.33;101046.69;5306724;28;20028;-80
2022/09/10 14:30:22;;;;;;;11.13;9.98;;;;;;;18.74;97.49;101052.75;5328046;28;20444;-82
2022/09/10 14:32:54;;;;;;;12.85;11.65;;;;;;;18.58;97.88;101053.34;5326548;28;20114;-79
2022/09/10 14:35:39;;;;;;;10.07;9.07;;;;;;;18.79;97.19;101061.00;5325572;28;20150;-78
2022/09/10 14:38:29;;;;;;;13.23;11.97;;;;;;;18.66;97.89;101058.09;5326241;28;20069;-79
2022/09/10 14:41:15;;;;;;;12.45;11.20;;;;;;;18.69;97.58;101063.03;5325612;28;20092;-81
2022/09/10 14:43:46;;;;;;;;;;;;;;;18.80;97.42;101055.06;5303900;28;20114;-80
2022/09/10 14:46:50;;;;;;;14.93;13.60;;;;;;;18.80;97.50;101051.44;5320538;28;20430;-79
2022/09/10 14:49:33;;;;;;;11.13;10.23;;;;;;;18.87;97.20;101052.53;5311739;22;20044;-80
2022/09/10 14:52:06;;;;;;;11.90;10.80;;;;;;;18.89;97.47;101057.78;5219798;28;20491;-78
2022/09/10 14:54:38;;;;;;;14.20;12.75;;;;;;;18.89;97.29;101052.19;5221415;28;20049;-74
2022/09/10 14:57:13;;;;;;;12.85;11.57;;;;;;;18.85;98.25;101059.66;5220395;28;20035;-72
2022/09/10 14:59:45;;;;;;;;;;;;;;;18.99;98.05;101065.81;5221822;28;20038;-70
2022/09/10 15:02:26;;;;;;;11.68;10.57;;;;;;;18.83;99.40;101062.81;5220989;28;19960;-72
2022/09/10 15:04:57;;;;;;;11.70;10.52;;;;;;;18.75;98.85;101065.66;5212580;28;20080;-69
2022/09/10 15:07:28;;;;;;;13.40;12.20;;;;;;;18.74;98.19;101069.59;5214481;28;20018;-69
2022/09/10 15:10:00;;;;;;;11.70;10.63;;;;;;;18.74;97.92;101076.06;5220376;28;20496;-69
2022/09/10 15:12:32;;;;;;;11.80;10.70;;;;;;;19.00;97.37;101078.72;5219988;28;20104;-69
2022/09/10 15:15:04;;;;;;;16.92;14.63;;;;;;;19.06;99.40;101079.34;5220025;28;20362;-70
2022/09/10 15:17:36;;;;;;;10.75;9.85;;;;;;;19.18;96.86;101090.69;5217229;28;20145;-69
2022/09/10 15:20:13;;;;;;;8.07;7.28;;;;;;;19.28;94.79;101083.81;5220075;28;20018;-69
2022/09/10 15:22:44;;;;;;;9.02;8.13;;;;;;;19.30;94.47;101093.56;5221058;28;20511;-69
2022/09/10 15:25:30;;;;;;;8.15;7.45;;;;;;;19.32;93.50;101096.00;5219076;28;20032;-69
2022/09/10 15:28:02;;;;;;;9.32;8.30;;;;;;;19.22;94.12;101102.88;5219055;28;20057;-69
2022/09/10 15:30:34;;;;;;;9.73;8.85;;;;;;;19.39;94.13;101101.09;5219257;28;20481;-69
2022/09/10 15:33:06;;;;;;;7.63;7.00;;;;;;;19.36;94.46;101102.59;5205347;28;20029;-70
2022/09/10 15:35:38;;;;;;;7.95;7.25;;;;;;;19.34;94.17;101113.38;5210648;28;20447;-70
2022/09/10 15:38:13;;;;;;;7.95;7.25;;;;;;;19.32;93.56;101101.63;5203498;28;20038;-70
2022/09/10 15:40:47;;;;;;;9.02;7.00;;;;;;;19.20;93.13;101110.00;5199604;28;20525;-68
2022/09/10 15:43:18;;;;;;;9.00;8.02;;;;;;;19.18;93.92;101112.34;5200405;28;20478;-69
2022/09/10 15:45:50;;;;;;;8.40;7.22;;;;;;;19.23;94.54;101114.97;5209391;28;20084;-69
2022/09/10 15:48:21;;;;;;;9.32;6.45;;;;;;;19.26;95.80;101119.88;5205691;28;20543;-69
2022/09/10 15:50:53;;;;;;;8.30;7.50;;;;;;;19.28;94.87;101117.56;5214015;28;20511;-69
2022/09/10 15:53:25;;;;;;;8.40;7.57;;;;;;;19.23;94.53;101131.81;5197278;28;20031;-72
2022/09/10 15:55:58;;;;;;;7.10;6.40;;;;;;;19.31;93.76;101128.13;5199507;28;20023;-72
2022/09/10 15:58:30;;;;;;;8.68;7.88;;;;;;;19.21;94.89;101122.91;5198815;28;20034;-73
2022/09/10 16:01:11;;;;;;;10.80;9.80;;;;;;;19.23;94.76;101135.44;5199190;28;20030;-73
2022/09/10 16:03:46;;;;;;;10.40;9.40;;;;;;;19.12;96.56;101125.75;5196227;28;20034;-69
2022/09/10 16:06:18;;;;;;;11.35;10.25;;;;;;;19.07;96.67;101126.81;5192516;28;20022;-69
2022/09/10 16:08:51;;;;;;;9.95;9.05;;;;;;;19.07;98.12;101132.44;5185496;28;20038;-70
2022/09/10 16:11:24;;;;;;;10.23;9.32;;;;;;;19.00;97.98;101140.56;5193964;28;20124;-69
2022/09/10 16:13:56;;;;;;;17.98;16.30;;;;;;;18.97;97.58;101138.44;5199928;28;20381;-70
2022/09/10 16:16:28;;;;;;;16.25;14.75;;;;;;;18.92;97.36;101137.78;5197995;28;20025;-69
2022/09/10 16:18:59;;;;;;;15.75;14.18;;;;;;;18.89;97.52;101144.91;5196081;28;20042;-69
2022/09/10 16:21:35;;;;;;;13.65;10.65;;;;;;;18.91;98.18;101156.63;5198892;28;20424;-70
2022/09/10 16:24:06;;;;;;;10.23;9.27;;;;;;;18.93;98.59;101151.50;5204081;28;20034;-69
2022/09/10 16:26:40;;;;;;;14.07;12.98;;;;;;;18.87;98.62;101148.06;5200082;28;20027;-69
2022/09/10 16:29:16;;;;;;;13.73;12.32;;;;;;;18.86;98.86;101142.78;5193339;28;20446;-70
2022/09/10 16:31:48;;;;;;;13.80;12.55;;;;;;;18.87;99.28;101147.25;5201376;28;20446;-70
2022/09/10 16:34:19;;;;;;;14.68;12.77;;;;;;;18.79;99.49;101150.91;5202972;28;20156;-70
2022/09/10 16:36:52;;;;;;;12.52;11.27;;;;;;;18.79;99.95;101153.72;5200741;28;20026;-70
2022/09/10 16:39:23;;;;;;;14.32;13.02;;;;;;;18.79;100.00;101162.16;5199367;28;20547;-70
2022/09/10 16:41:54;;;;;;;17.73;16.20;;;;;;;18.78;99.85;101163.31;5198514;28;20465;-70
2022/09/10 16:44:27;;;;;;;12.25;11.02;;;;;;;18.75;100.00;101167.63;5202729;28;20444;-69
2022/09/10 16:46:58;;;;;;;11.60;10.20;;;;;;;18.74;100.00;101174.41;5202227;28;20084;-69
2022/09/10 16:49:31;;;;;;;11.45;10.30;;;;;;;18.74;100.00;101179.16;5204321;28;20394;-69
2022/09/10 16:52:04;;;;;;;15.95;14.40;;;;;;;18.73;100.00;101171.91;5224376;28;20487;-70
2022/09/10 16:54:37;;;;;;;15.95;14.15;;;;;;;18.74;100.00;101170.75;5223430;28;20488;-70
2022/09/10 16:57:08;;;;;;;10.82;9.75;;;;;;;18.72;98.46;101178.69;5222419;28;20469;-70
2022/09/10 16:59:40;;;;;;;11.45;8.63;;;;;;;18.69;96.98;101186.63;5216950;28;20033;-70
2022/09/10 17:02:11;;;;;;;11.18;9.32;;;;;;;18.65;96.82;101173.59;5217310;28;20062;-70
2022/09/10 17:04:42;;;;;;;10.68;9.73;;;;;;;18.66;97.00;101178.88;5223038;28;20029;-70
2022/09/10 17:07:14;;;;;;;11.18;10.02;;;;;;;18.62;96.94;101180.72;5221402;28;20032;-70
2022/09/10 17:09:45;;;;;;;10.32;9.45;;;;;;;18.61;97.47;101187.50;5207827;28;20536;-69
2022/09/10 17:12:16;;;;;;;10.20;8.82;;;;;;;18.49;96.46;101190.19;5211625;28;20389;-69
2022/09/10 17:14:48;;;;;;;9.55;8.65;;;;;;;18.39;96.38;101184.91;5223823;28;20388;-71
2022/09/10 17:17:19;;;;;;;9.60;8.80;;;;;;;18.42;97.07;101173.84;5221763;28;20362;-70
2022/09/10 17:19:51;;;;;;;10.25;8.75;;;;;;;18.35;96.95;101186.75;5217430;28;20022;-70
2022/09/10 17:22:22;;;;;;;10.93;9.77;;;;;;;18.43;96.95;101188.69;5223296;28;20030;-71
2022/09/10 17:24:54;;;;;;;10.13;9.32;;;;;;;18.34;96.15;101185.09;5222806;28;20030;-71
2022/09/10 17:27:26;;;;;;;9.60;8.13;;;;;;;18.27;95.13;101193.19;5222948;28;20453;-70
2022/09/10 17:29:57;;;;;;;10.15;9.15;;;;;;;18.24;94.93;101195.50;5214855;28;20027;-69
2022/09/10 17:32:29;;;;;;;9.85;8.85;;;;;;;18.24;95.41;101197.50;5201929;28;20116;-70
